sensor_id;sensor_type;location;lat;lon;timestamp;pressure;altitude;pressure_sealevel;temperature
42119;BMP280;27783;42.782;23.274;2023-10-31T00:00:36;95755.59;;;7.19
42119;BMP280;27783;42.782;23.274;2023-10-31T00:03:01;95764.97;;;7.20
42119;BMP280;27783;42.782;23.274;2023-10-31T00:05:27;95756.47;;;7.05
42119;BMP280;27783;42.782;23.274;2023-10-31T00:07:52;95754.47;;;6.95
42119;BMP280;27783;42.782;23.274;2023-10-31T00:10:17;95755.59;;;7.19
42119;BMP280;27783;42.782;23.274;2023-10-31T00:12:43;95747.78;;;6.98
42119;BMP280;27783;42.782;23.274;2023-10-31T00:15:08;95756.50;;;6.80
42119;BMP280;27783;42.782;23.274;2023-10-31T00:17:34;95743.88;;;6.88
42119;BMP280;27783;42.782;23.274;2023-10-31T00:19:59;95743.22;;;6.95
42119;BMP280;27783;42.782;23.274;2023-10-31T00:22:25;95765.94;;;6.62
42119;BMP280;27783;42.782;23.274;2023-10-31T00:24:50;95726.34;;;6.42
42119;BMP280;27783;42.782;23.274;2023-10-31T00:27:16;95740.78;;;6.80
42119;BMP280;27783;42.782;23.274;2023-10-31T00:29:41;95739.97;;;6.76
42119;BMP280;27783;42.782;23.274;2023-10-31T00:32:06;95710.44;;;7.04
42119;BMP280;27783;42.782;23.274;2023-10-31T00:34:32;95732.22;;;7.08
42119;BMP280;27783;42.782;23.274;2023-10-31T00:36:57;95722.66;;;6.68
42119;BMP280;27783;42.782;23.274;2023-10-31T00:39:22;95707.47;;;7.05
42119;BMP280;27783;42.782;23.274;2023-10-31T00:41:48;95733.91;;;7.22
42119;BMP280;27783;42.782;23.274;2023-10-31T00:44:13;95729.50;;;7.01
42119;BMP280;27783;42.782;23.274;2023-10-31T00:46:39;95713.16;;;6.85
42119;BMP280;27783;42.782;23.274;2023-10-31T00:49:04;95729.59;;;7.08
42119;BMP280;27783;42.782;23.274;2023-10-31T00:51:30;95723.56;;;7.32
42119;BMP280;27783;42.782;23.274;2023-10-31T00:53:55;95721.81;;;7.15
42119;BMP280;27783;42.782;23.274;2023-10-31T00:56:20;95724.78;;;7.13
42119;BMP280;27783;42.782;23.274;2023-10-31T00:58:46;95715.34;;;6.80
42119;BMP280;27783;42.782;23.274;2023-10-31T01:01:11;95714.63;;;6.58
42119;BMP280;27783;42.782;23.274;2023-10-31T01:03:36;95700.47;;;6.62
42119;BMP280;27783;42.782;23.274;2023-10-31T01:06:02;95711.84;;;6.73
42119;BMP280;27783;42.782;23.274;2023-10-31T01:08:28;95708.53;;;7.01
42119;BMP280;27783;42.782;23.274;2023-10-31T01:10:54;95701.78;;;7.00
42119;BMP280;27783;42.782;23.274;2023-10-31T01:13:20;95706.06;;;7.40
42119;BMP280;27783;42.782;23.274;2023-10-31T01:15:45;95702.78;;;7.49
42119;BMP280;27783;42.782;23.274;2023-10-31T01:18:11;95698.66;;;6.91
42119;BMP280;27783;42.782;23.274;2023-10-31T01:20:36;95705.22;;;7.04
42119;BMP280;27783;42.782;23.274;2023-10-31T01:23:03;95709.38;;;7.08
42119;BMP280;27783;42.782;23.274;2023-10-31T01:25:28;95701.56;;;5.92
42119;BMP280;27783;42.782;23.274;2023-10-31T01:27:54;95699.25;;;6.56
42119;BMP280;27783;42.782;23.274;2023-10-31T01:30:19;95694.53;;;6.65
42119;BMP280;27783;42.782;23.274;2023-10-31T01:32:45;95698.72;;;6.69
42119;BMP280;27783;42.782;23.274;2023-10-31T01:35:10;95689.47;;;7.04
42119;BMP280;27783;42.782;23.274;2023-10-31T01:37:36;95696.22;;;7.05
42119;BMP280;27783;42.782;23.274;2023-10-31T01:40:02;95693.72;;;6.86
42119;BMP280;27783;42.782;23.274;2023-10-31T01:42:28;95688.88;;;6.88
42119;BMP280;27783;42.782;23.274;2023-10-31T01:44:54;95700.66;;;6.50
42119;BMP280;27783;42.782;23.274;2023-10-31T01:47:19;95687.28;;;6.55
42119;BMP280;27783;42.782;23.274;2023-10-31T01:49:44;95696.16;;;6.73
42119;BMP280;27783;42.782;23.274;2023-10-31T01:52:10;95689.00;;;6.45
42119;BMP280;27783;42.782;23.274;2023-10-31T01:54:35;95682.69;;;6.49
42119;BMP280;27783;42.782;23.274;2023-10-31T01:57:02;95688.28;;;6.26
42119;BMP280;27783;42.782;23.274;2023-10-31T01:59:30;95685.28;;;6.24
42119;BMP280;27783;42.782;23.274;2023-10-31T02:01:56;95679.84;;;6.35
42119;BMP280;27783;42.782;23.274;2023-10-31T02:04:24;95693.31;;;6.34
42119;BMP280;27783;42.782;23.274;2023-10-31T02:06:49;95692.50;;;6.08
42119;BMP280;27783;42.782;23.274;2023-10-31T02:09:15;95683.81;;;6.26
42119;BMP280;27783;42.782;23.274;2023-10-31T02:11:40;95693.69;;;6.36
42119;BMP280;27783;42.782;23.274;2023-10-31T02:14:06;95686.50;;;6.08
42119;BMP280;27783;42.782;23.274;2023-10-31T02:16:31;95670.34;;;5.81
42119;BMP280;27783;42.782;23.274;2023-10-31T02:18:56;95686.97;;;5.91
42119;BMP280;27783;42.782;23.274;2023-10-31T02:21:22;95686.97;;;5.91
42119;BMP280;27783;42.782;23.274;2023-10-31T02:24:01;95677.97;;;5.89
42119;BMP280;27783;42.782;23.274;2023-10-31T02:26:30;95669.50;;;5.77
42119;BMP280;27783;42.782;23.274;2023-10-31T02:28:57;95669.38;;;5.70
42119;BMP280;27783;42.782;23.274;2023-10-31T02:31:22;95677.66;;;5.35
42119;BMP280;27783;42.782;23.274;2023-10-31T02:33:48;95682.28;;;5.41
42119;BMP280;27783;42.782;23.274;2023-10-31T02:36:13;95690.09;;;5.04
42119;BMP280;27783;42.782;23.274;2023-10-31T02:38:39;95692.38;;;4.24
42119;BMP280;27783;42.782;23.274;2023-10-31T02:41:05;95694.69;;;4.92
42119;BMP280;27783;42.782;23.274;2023-10-31T02:43:30;95688.75;;;5.29
42119;BMP280;27783;42.782;23.274;2023-10-31T02:45:55;95684.69;;;5.31
42119;BMP280;27783;42.782;23.274;2023-10-31T02:48:21;95696.44;;;5.40
42119;BMP280;27783;42.782;23.274;2023-10-31T02:50:46;95682.75;;;5.28
42119;BMP280;27783;42.782;23.274;2023-10-31T02:53:12;95684.84;;;5.19
42119;BMP280;27783;42.782;23.274;2023-10-31T02:55:37;95694.22;;;5.05
42119;BMP280;27783;42.782;23.274;2023-10-31T02:58:02;95692.50;;;4.94
42119;BMP280;27783;42.782;23.274;2023-10-31T03:00:28;95696.63;;;5.14
42119;BMP280;27783;42.782;23.274;2023-10-31T03:02:53;95687.97;;;5.47
42119;BMP280;27783;42.782;23.274;2023-10-31T03:05:18;95676.00;;;5.27
42119;BMP280;27783;42.782;23.274;2023-10-31T03:07:44;95686.09;;;5.47
42119;BMP280;27783;42.782;23.274;2023-10-31T03:10:10;95686.31;;;5.57
42119;BMP280;27783;42.782;23.274;2023-10-31T03:12:35;95685.63;;;5.60
42119;BMP280;27783;42.782;23.274;2023-10-31T03:15:02;95675.16;;;5.60
42119;BMP280;27783;42.782;23.274;2023-10-31T03:17:29;95670.56;;;5.54
42119;BMP280;27783;42.782;23.274;2023-10-31T03:19:54;95691.00;;;4.45
42119;BMP280;27783;42.782;23.274;2023-10-31T03:22:20;95680.09;;;4.73
42119;BMP280;27783;42.782;23.274;2023-10-31T03:24:45;95677.88;;;5.08
42119;BMP280;27783;42.782;23.274;2023-10-31T03:27:11;95676.50;;;5.14
42119;BMP280;27783;42.782;23.274;2023-10-31T03:29:36;95673.88;;;4.96
42119;BMP280;27783;42.782;23.274;2023-10-31T03:32:02;95665.19;;;5.07
42119;BMP280;27783;42.782;23.274;2023-10-31T03:34:27;95666.47;;;5.16
42119;BMP280;27783;42.782;23.274;2023-10-31T03:36:52;95662.31;;;5.33
42119;BMP280;27783;42.782;23.274;2023-10-31T03:39:18;95670.28;;;5.40
42119;BMP280;27783;42.782;23.274;2023-10-31T03:41:43;95648.53;;;5.33
42119;BMP280;27783;42.782;23.274;2023-10-31T03:44:09;95660.75;;;5.29
42119;BMP280;27783;42.782;23.274;2023-10-31T03:46:34;95664.06;;;4.89
42119;BMP280;27783;42.782;23.274;2023-10-31T03:48:59;95662.34;;;4.97
42119;BMP280;27783;42.782;23.274;2023-10-31T03:51:25;95658.13;;;4.92
42119;BMP280;27783;42.782;23.274;2023-10-31T03:53:50;95658.81;;;4.89
42119;BMP280;27783;42.782;23.274;2023-10-31T03:56:15;95673.59;;;4.48
42119;BMP280;27783;42.782;23.274;2023-10-31T03:58:42;95659.47;;;4.68
42119;BMP280;27783;42.782;23.274;2023-10-31T04:01:08;95661.81;;;4.39
42119;BMP280;27783;42.782;23.274;2023-10-31T04:03:33;95657.31;;;4.55
42119;BMP280;27783;42.782;23.274;2023-10-31T04:05:59;95654.53;;;4.63
42119;BMP280;27783;42.782;23.274;2023-10-31T04:08:24;95655.38;;;5.04
42119;BMP280;27783;42.782;23.274;2023-10-31T04:10:49;95653.47;;;4.82
42119;BMP280;27783;42.782;23.274;2023-10-31T04:13:15;95656.47;;;4.66
42119;BMP280;27783;42.782;23.274;2023-10-31T04:15:40;95651.75;;;4.23
42119;BMP280;27783;42.782;23.274;2023-10-31T04:18:05;95648.16;;;3.97
42119;BMP280;27783;42.782;23.274;2023-10-31T04:20:31;95649.63;;;4.43
42119;BMP280;27783;42.782;23.274;2023-10-31T04:22:56;95644.34;;;4.58
42119;BMP280;27783;42.782;23.274;2023-10-31T04:25:44;95645.78;;;4.56
42119;BMP280;27783;42.782;23.274;2023-10-31T04:28:09;95645.09;;;4.74
42119;BMP280;27783;42.782;23.274;2023-10-31T04:30:35;95661.75;;;4.69
42119;BMP280;27783;42.782;23.274;2023-10-31T04:33:00;95654.97;;;4.83
42119;BMP280;27783;42.782;23.274;2023-10-31T04:35:27;95649.09;;;5.23
42119;BMP280;27783;42.782;23.274;2023-10-31T04:37:52;95646.13;;;5.06
42119;BMP280;27783;42.782;23.274;2023-10-31T04:40:20;95663.94;;;5.19
42119;BMP280;27783;42.782;23.274;2023-10-31T04:42:46;95656.13;;;5.41
42119;BMP280;27783;42.782;23.274;2023-10-31T04:45:13;95667.63;;;5.18
42119;BMP280;27783;42.782;23.274;2023-10-31T04:47:41;95688.06;;;5.13
42119;BMP280;27783;42.782;23.274;2023-10-31T04:50:07;95665.50;;;4.53
42119;BMP280;27783;42.782;23.274;2023-10-31T04:52:33;95678.47;;;4.35
42119;BMP280;27783;42.782;23.274;2023-10-31T04:55:00;95672.63;;;3.78
42119;BMP280;27783;42.782;23.274;2023-10-31T04:57:26;95671.44;;;3.90
42119;BMP280;27783;42.782;23.274;2023-10-31T04:59:51;95680.13;;;4.24
42119;BMP280;27783;42.782;23.274;2023-10-31T05:02:21;95668.03;;;4.35
42119;BMP280;27783;42.782;23.274;2023-10-31T05:04:47;95669.34;;;3.81
42119;BMP280;27783;42.782;23.274;2023-10-31T05:07:17;95659.66;;;3.96
42119;BMP280;27783;42.782;23.274;2023-10-31T05:09:45;95671.69;;;4.15
42119;BMP280;27783;42.782;23.274;2023-10-31T05:12:10;95664.19;;;4.29
42119;BMP280;27783;42.782;23.274;2023-10-31T05:14:36;95685.22;;;4.06
42119;BMP280;27783;42.782;23.274;2023-10-31T05:17:02;95684.19;;;3.23
42119;BMP280;27783;42.782;23.274;2023-10-31T05:19:29;95673.34;;;3.48
42119;BMP280;27783;42.782;23.274;2023-10-31T05:21:56;95666.88;;;3.72
42119;BMP280;27783;42.782;23.274;2023-10-31T05:24:21;95674.97;;;3.82
42119;BMP280;27783;42.782;23.274;2023-10-31T05:26:46;95670.09;;;3.39
42119;BMP280;27783;42.782;23.274;2023-10-31T05:29:12;95670.00;;;3.78
42119;BMP280;27783;42.782;23.274;2023-10-31T05:31:39;95694.00;;;3.56
42119;BMP280;27783;42.782;23.274;2023-10-31T05:34:04;95674.22;;;3.97
42119;BMP280;27783;42.782;23.274;2023-10-31T05:36:32;95694.19;;;4.05
42119;BMP280;27783;42.782;23.274;2023-10-31T05:39:03;95677.41;;;4.06
42119;BMP280;27783;42.782;23.274;2023-10-31T05:41:29;95684.72;;;4.31
42119;BMP280;27783;42.782;23.274;2023-10-31T05:43:55;95687.78;;;4.66
42119;BMP280;27783;42.782;23.274;2023-10-31T05:46:21;95699.75;;;4.67
42119;BMP280;27783;42.782;23.274;2023-10-31T05:48:48;95708.03;;;4.24
42119;BMP280;27783;42.782;23.274;2023-10-31T05:51:17;95701.06;;;4.76
42119;BMP280;27783;42.782;23.274;2023-10-31T05:53:48;95701.91;;;4.98
42119;BMP280;27783;42.782;23.274;2023-10-31T05:56:19;95695.44;;;5.26
42119;BMP280;27783;42.782;23.274;2023-10-31T05:58:44;95712.66;;;5.31
42119;BMP280;27783;42.782;23.274;2023-10-31T06:01:11;95709.69;;;5.50
42119;BMP280;27783;42.782;23.274;2023-10-31T06:03:42;95714.66;;;5.92
42119;BMP280;27783;42.782;23.274;2023-10-31T06:06:12;95716.06;;;5.90
42119;BMP280;27783;42.782;23.274;2023-10-31T06:08:42;95720.41;;;6.45
42119;BMP280;27783;42.782;23.274;2023-10-31T06:11:09;95707.94;;;6.60
42119;BMP280;27783;42.782;23.274;2023-10-31T06:13:38;95706.66;;;6.76
42119;BMP280;27783;42.782;23.274;2023-10-31T06:16:05;95704.59;;;6.88
42119;BMP280;27783;42.782;23.274;2023-10-31T06:18:32;95704.25;;;6.90
42119;BMP280;27783;42.782;23.274;2023-10-31T06:21:06;95706.25;;;7.28
42119;BMP280;27783;42.782;23.274;2023-10-31T06:23:35;95712.72;;;7.34
42119;BMP280;27783;42.782;23.274;2023-10-31T06:26:00;95702.88;;;7.56
42119;BMP280;27783;42.782;23.274;2023-10-31T06:28:25;95713.19;;;7.75
42119;BMP280;27783;42.782;23.274;2023-10-31T06:30:51;95709.34;;;7.98
42119;BMP280;27783;42.782;23.274;2023-10-31T06:33:16;95698.28;;;8.17
42119;BMP280;27783;42.782;23.274;2023-10-31T06:35:41;95697.38;;;8.39
42119;BMP280;27783;42.782;23.274;2023-10-31T06:38:07;95706.44;;;8.48
42119;BMP280;27783;42.782;23.274;2023-10-31T06:40:32;95699.94;;;8.81
42119;BMP280;27783;42.782;23.274;2023-10-31T06:42:57;95692.97;;;9.09
42119;BMP280;27783;42.782;23.274;2023-10-31T06:45:24;95692.28;;;9.18
42119;BMP280;27783;42.782;23.274;2023-10-31T06:47:49;95670.56;;;9.35
42119;BMP280;27783;42.782;23.274;2023-10-31T06:50:15;95677.44;;;9.60
42119;BMP280;27783;42.782;23.274;2023-10-31T06:52:40;95682.09;;;9.10
42119;BMP280;27783;42.782;23.274;2023-10-31T06:55:06;95676.22;;;9.40
42119;BMP280;27783;42.782;23.274;2023-10-31T06:57:31;95682.25;;;9.41
42119;BMP280;27783;42.782;23.274;2023-10-31T06:59:58;95689.56;;;9.84
42119;BMP280;27783;42.782;23.274;2023-10-31T07:02:24;95691.00;;;9.72
42119;BMP280;27783;42.782;23.274;2023-10-31T07:04:51;95676.84;;;10.03
42119;BMP280;27783;42.782;23.274;2023-10-31T07:07:16;95687.75;;;10.16
42119;BMP280;27783;42.782;23.274;2023-10-31T07:09:41;95688.88;;;10.28
42119;BMP280;27783;42.782;23.274;2023-10-31T07:12:08;95670.00;;;11.08
42119;BMP280;27783;42.782;23.274;2023-10-31T07:14:33;95665.47;;;11.32
42119;BMP280;27783;42.782;23.274;2023-10-31T07:17:00;95664.72;;;11.15
42119;BMP280;27783;42.782;23.274;2023-10-31T07:19:25;95661.56;;;11.64
42119;BMP280;27783;42.782;23.274;2023-10-31T07:21:51;95662.28;;;11.71
42119;BMP280;27783;42.782;23.274;2023-10-31T07:24:16;95667.19;;;12.32
42119;BMP280;27783;42.782;23.274;2023-10-31T07:26:42;95656.28;;;12.27
42119;BMP280;27783;42.782;23.274;2023-10-31T07:29:08;95659.59;;;12.37
42119;BMP280;27783;42.782;23.274;2023-10-31T07:31:34;95648.16;;;12.54
42119;BMP280;27783;42.782;23.274;2023-10-31T07:34:03;95646.72;;;12.43
42119;BMP280;27783;42.782;23.274;2023-10-31T07:36:29;95648.84;;;12.61
42119;BMP280;27783;42.782;23.274;2023-10-31T07:38:54;95647.28;;;13.10
42119;BMP280;27783;42.782;23.274;2023-10-31T07:41:20;95647.78;;;13.31
42119;BMP280;27783;42.782;23.274;2023-10-31T07:43:45;95646.19;;;13.69
42119;BMP280;27783;42.782;23.274;2023-10-31T07:46:10;95647.84;;;13.89
42119;BMP280;27783;42.782;23.274;2023-10-31T07:48:36;95644.97;;;14.32
42119;BMP280;27783;42.782;23.274;2023-10-31T07:51:01;95634.59;;;14.85
42119;BMP280;27783;42.782;23.274;2023-10-31T07:53:27;95631.06;;;14.24
42119;BMP280;27783;42.782;23.274;2023-10-31T07:55:52;95625.09;;;14.65
42119;BMP280;27783;42.782;23.274;2023-10-31T07:58:17;95626.81;;;14.52
42119;BMP280;27783;42.782;23.274;2023-10-31T08:00:43;95626.59;;;14.66
42119;BMP280;27783;42.782;23.274;2023-10-31T08:03:08;95624.84;;;15.23
42119;BMP280;27783;42.782;23.274;2023-10-31T08:05:33;95615.41;;;15.76
42119;BMP280;27783;42.782;23.274;2023-10-31T08:07:59;95614.94;;;15.05
42119;BMP280;27783;42.782;23.274;2023-10-31T08:10:24;95608.25;;;15.54
42119;BMP280;27783;42.782;23.274;2023-10-31T08:12:49;95607.19;;;16.05
42119;BMP280;27783;42.782;23.274;2023-10-31T08:15:16;95606.34;;;15.92
42119;BMP280;27783;42.782;23.274;2023-10-31T08:17:42;95601.97;;;15.83
42119;BMP280;27783;42.782;23.274;2023-10-31T08:20:08;95592.69;;;16.56
42119;BMP280;27783;42.782;23.274;2023-10-31T08:22:36;95587.69;;;16.73
42119;BMP280;27783;42.782;23.274;2023-10-31T08:25:02;95580.97;;;16.69
42119;BMP280;27783;42.782;23.274;2023-10-31T08:27:27;95569.66;;;17.36
42119;BMP280;27783;42.782;23.274;2023-10-31T08:29:53;95565.28;;;17.82
42119;BMP280;27783;42.782;23.274;2023-10-31T08:32:18;95575.94;;;17.02
42119;BMP280;27783;42.782;23.274;2023-10-31T08:34:44;95569.53;;;17.27
42119;BMP280;27783;42.782;23.274;2023-10-31T08:37:10;95566.38;;;17.96
42119;BMP280;27783;42.782;23.274;2023-10-31T08:39:36;95564.19;;;17.67
42119;BMP280;27783;42.782;23.274;2023-10-31T08:42:01;95556.69;;;17.62
42119;BMP280;27783;42.782;23.274;2023-10-31T08:44:27;95544.97;;;17.72
42119;BMP280;27783;42.782;23.274;2023-10-31T08:46:54;95533.81;;;18.01
42119;BMP280;27783;42.782;23.274;2023-10-31T08:49:20;95529.06;;;18.53
42119;BMP280;27783;42.782;23.274;2023-10-31T08:51:45;95533.41;;;18.02
42119;BMP280;27783;42.782;23.274;2023-10-31T08:54:10;95520.59;;;18.22
42119;BMP280;27783;42.782;23.274;2023-10-31T08:56:36;95524.28;;;18.49
42119;BMP280;27783;42.782;23.274;2023-10-31T08:59:02;95522.06;;;19.55
42119;BMP280;27783;42.782;23.274;2023-10-31T09:01:27;95503.38;;;20.02
42119;BMP280;27783;42.782;23.274;2023-10-31T09:03:54;95491.72;;;19.28
42119;BMP280;27783;42.782;23.274;2023-10-31T09:06:20;95497.31;;;19.21
42119;BMP280;27783;42.782;23.274;2023-10-31T09:08:45;95493.56;;;19.61
42119;BMP280;27783;42.782;23.274;2023-10-31T09:11:10;95488.34;;;19.36
42119;BMP280;27783;42.782;23.274;2023-10-31T09:13:36;95477.84;;;19.00
42119;BMP280;27783;42.782;23.274;2023-10-31T09:16:02;95473.31;;;19.89
42119;BMP280;27783;42.782;23.274;2023-10-31T09:18:28;95482.72;;;19.64
42119;BMP280;27783;42.782;23.274;2023-10-31T09:20:54;95470.13;;;19.73
42119;BMP280;27783;42.782;23.274;2023-10-31T09:23:19;95458.19;;;20.60
42119;BMP280;27783;42.782;23.274;2023-10-31T09:25:45;95472.56;;;19.89
42119;BMP280;27783;42.782;23.274;2023-10-31T09:28:11;95457.59;;;20.91
42119;BMP280;27783;42.782;23.274;2023-10-31T09:30:37;95446.84;;;19.83
42119;BMP280;27783;42.782;23.274;2023-10-31T09:33:02;95441.75;;;19.67
42119;BMP280;27783;42.782;23.274;2023-10-31T09:35:28;95433.16;;;20.98
42119;BMP280;27783;42.782;23.274;2023-10-31T09:37:55;95430.66;;;20.59
42119;BMP280;27783;42.782;23.274;2023-10-31T09:40:20;95428.56;;;20.46
42119;BMP280;27783;42.782;23.274;2023-10-31T09:42:46;95417.69;;;20.93
42119;BMP280;27783;42.782;23.274;2023-10-31T09:45:12;95417.59;;;21.45
42119;BMP280;27783;42.782;23.274;2023-10-31T09:47:45;95406.34;;;21.64
42119;BMP280;27783;42.782;23.274;2023-10-31T09:50:11;95407.56;;;20.88
42119;BMP280;27783;42.782;23.274;2023-10-31T09:52:36;95402.22;;;20.97
42119;BMP280;27783;42.782;23.274;2023-10-31T09:55:02;95394.03;;;21.00
42119;BMP280;27783;42.782;23.274;2023-10-31T09:57:29;95389.78;;;21.34
42119;BMP280;27783;42.782;23.274;2023-10-31T09:59:54;95371.88;;;21.80
42119;BMP280;27783;42.782;23.274;2023-10-31T10:02:20;95363.91;;;21.94
42119;BMP280;27783;42.782;23.274;2023-10-31T10:04:45;95361.44;;;22.28
42119;BMP280;27783;42.782;23.274;2023-10-31T10:07:15;95346.38;;;21.76
42119;BMP280;27783;42.782;23.274;2023-10-31T10:09:47;95344.91;;;21.75
42119;BMP280;27783;42.782;23.274;2023-10-31T10:12:14;95341.59;;;22.03
42119;BMP280;27783;42.782;23.274;2023-10-31T10:14:42;95336.63;;;22.10
42119;BMP280;27783;42.782;23.274;2023-10-31T10:17:22;95325.25;;;22.38
42119;BMP280;27783;42.782;23.274;2023-10-31T10:20:05;95319.72;;;21.72
42119;BMP280;27783;42.782;23.274;2023-10-31T10:22:31;95321.34;;;21.79
42119;BMP280;27783;42.782;23.274;2023-10-31T10:24:56;95316.75;;;21.79
42119;BMP280;27783;42.782;23.274;2023-10-31T10:27:21;95322.78;;;21.57
42119;BMP280;27783;42.782;23.274;2023-10-31T10:29:47;95320.13;;;21.80
42119;BMP280;27783;42.782;23.274;2023-10-31T10:32:12;95306.78;;;22.68
42119;BMP280;27783;42.782;23.274;2023-10-31T10:34:37;95308.78;;;22.07
42119;BMP280;27783;42.782;23.274;2023-10-31T10:37:05;95297.63;;;22.00
42119;BMP280;27783;42.782;23.274;2023-10-31T10:39:33;95293.59;;;22.55
42119;BMP280;27783;42.782;23.274;2023-10-31T10:42:00;95288.13;;;21.99
42119;BMP280;27783;42.782;23.274;2023-10-31T10:44:34;95285.13;;;21.97
42119;BMP280;27783;42.782;23.274;2023-10-31T10:47:04;95275.41;;;21.86
42119;BMP280;27783;42.782;23.274;2023-10-31T10:49:33;95274.59;;;22.45
42119;BMP280;27783;42.782;23.274;2023-10-31T10:52:23;95263.31;;;22.97
42119;BMP280;27783;42.782;23.274;2023-10-31T10:55:20;95266.53;;;22.45
42119;BMP280;27783;42.782;23.274;2023-10-31T10:58:00;95265.63;;;22.11
42119;BMP280;27783;42.782;23.274;2023-10-31T11:00:26;95264.03;;;22.41
42119;BMP280;27783;42.782;23.274;2023-10-31T11:02:56;95254.81;;;22.71
42119;BMP280;27783;42.782;23.274;2023-10-31T11:05:23;95245.06;;;23.35
42119;BMP280;27783;42.782;23.274;2023-10-31T11:07:51;95241.25;;;22.37
42119;BMP280;27783;42.782;23.274;2023-10-31T11:10:17;95235.50;;;21.93
42119;BMP280;27783;42.782;23.274;2023-10-31T11:12:43;95228.25;;;22.21
42119;BMP280;27783;42.782;23.274;2023-10-31T11:15:10;95226.03;;;22.34
42119;BMP280;27783;42.782;23.274;2023-10-31T11:17:40;95224.41;;;22.51
42119;BMP280;27783;42.782;23.274;2023-10-31T11:20:10;95216.44;;;22.70
42119;BMP280;27783;42.782;23.274;2023-10-31T11:22:44;95203.00;;;22.42
42119;BMP280;27783;42.782;23.274;2023-10-31T11:25:13;95204.72;;;22.17
42119;BMP280;27783;42.782;23.274;2023-10-31T11:27:39;95200.13;;;22.31
42119;BMP280;27783;42.782;23.274;2023-10-31T11:30:26;95187.63;;;22.56
42119;BMP280;27783;42.782;23.274;2023-10-31T11:32:53;95190.19;;;22.23
42119;BMP280;27783;42.782;23.274;2023-10-31T11:35:18;95175.13;;;22.54
42119;BMP280;27783;42.782;23.274;2023-10-31T11:37:47;95172.97;;;22.43
42119;BMP280;27783;42.782;23.274;2023-10-31T11:40:15;95171.06;;;22.58
42119;BMP280;27783;42.782;23.274;2023-10-31T11:42:41;95174.56;;;22.78
42119;BMP280;27783;42.782;23.274;2023-10-31T11:45:10;95174.91;;;22.43
42119;BMP280;27783;42.782;23.274;2023-10-31T11:47:49;95172.72;;;22.41
42119;BMP280;27783;42.782;23.274;2023-10-31T11:50:15;95164.69;;;22.89
42119;BMP280;27783;42.782;23.274;2023-10-31T11:52:41;95159.81;;;22.73
42119;BMP280;27783;42.782;23.274;2023-10-31T11:55:10;95161.66;;;22.39
42119;BMP280;27783;42.782;23.274;2023-10-31T11:57:40;95157.53;;;22.24
42119;BMP280;27783;42.782;23.274;2023-10-31T12:00:06;95156.13;;;22.29
42119;BMP280;27783;42.782;23.274;2023-10-31T12:02:33;95159.38;;;22.61
42119;BMP280;27783;42.782;23.274;2023-10-31T12:05:12;95142.13;;;22.67
42119;BMP280;27783;42.782;23.274;2023-10-31T12:07:45;95135.31;;;22.86
42119;BMP280;27783;42.782;23.274;2023-10-31T12:10:11;95129.19;;;22.85
42119;BMP280;27783;42.782;23.274;2023-10-31T12:12:36;95114.97;;;22.99
42119;BMP280;27783;42.782;23.274;2023-10-31T12:15:08;95125.72;;;22.99
42119;BMP280;27783;42.782;23.274;2023-10-31T12:17:35;95125.56;;;23.22
42119;BMP280;27783;42.782;23.274;2023-10-31T12:20:07;95121.22;;;22.90
42119;BMP280;27783;42.782;23.274;2023-10-31T12:22:34;95112.97;;;22.94
42119;BMP280;27783;42.782;23.274;2023-10-31T12:25:05;95110.81;;;22.98
42119;BMP280;27783;42.782;23.274;2023-10-31T12:27:50;95104.47;;;23.34
42119;BMP280;27783;42.782;23.274;2023-10-31T12:30:20;95115.56;;;22.88
42119;BMP280;27783;42.782;23.274;2023-10-31T12:32:54;95111.66;;;22.89
42119;BMP280;27783;42.782;23.274;2023-10-31T12:35:23;95109.69;;;22.71
42119;BMP280;27783;42.782;23.274;2023-10-31T12:37:50;95083.56;;;22.71
42119;BMP280;27783;42.782;23.274;2023-10-31T12:40:20;95083.00;;;22.67
42119;BMP280;27783;42.782;23.274;2023-10-31T12:42:47;95071.06;;;22.68
42119;BMP280;27783;42.782;23.274;2023-10-31T12:45:14;95070.00;;;22.80
42119;BMP280;27783;42.782;23.274;2023-10-31T12:47:39;95072.06;;;22.71
42119;BMP280;27783;42.782;23.274;2023-10-31T12:50:15;95061.53;;;22.67
42119;BMP280;27783;42.782;23.274;2023-10-31T12:55:24;95081.13;;;23.26
42119;BMP280;27783;42.782;23.274;2023-10-31T12:57:51;95070.81;;;23.05
42119;BMP280;27783;42.782;23.274;2023-10-31T13:00:19;95080.50;;;23.17
42119;BMP280;27783;42.782;23.274;2023-10-31T13:03:04;95086.63;;;23.56
42119;BMP280;27783;42.782;23.274;2023-10-31T13:05:30;95082.25;;;23.39
42119;BMP280;27783;42.782;23.274;2023-10-31T13:07:57;95078.81;;;23.58
42119;BMP280;27783;42.782;23.274;2023-10-31T13:10:24;95078.25;;;23.54
42119;BMP280;27783;42.782;23.274;2023-10-31T13:12:50;95077.25;;;22.74
42119;BMP280;27783;42.782;23.274;2023-10-31T13:15:17;95080.88;;;22.71
42119;BMP280;27783;42.782;23.274;2023-10-31T13:17:46;95062.97;;;23.21
42119;BMP280;27783;42.782;23.274;2023-10-31T13:20:14;95064.94;;;23.21
42119;BMP280;27783;42.782;23.274;2023-10-31T13:22:42;95063.13;;;22.79
42119;BMP280;27783;42.782;23.274;2023-10-31T13:25:10;95051.56;;;23.26
42119;BMP280;27783;42.782;23.274;2023-10-31T13:27:39;95051.25;;;23.68
42119;BMP280;27783;42.782;23.274;2023-10-31T13:30:11;95054.38;;;23.86
42119;BMP280;27783;42.782;23.274;2023-10-31T13:32:38;95055.34;;;24.08
42119;BMP280;27783;42.782;23.274;2023-10-31T13:35:08;95047.16;;;24.27
42119;BMP280;27783;42.782;23.274;2023-10-31T13:37:35;95044.41;;;23.87
42119;BMP280;27783;42.782;23.274;2023-10-31T13:40:00;95032.78;;;23.81
42119;BMP280;27783;42.782;23.274;2023-10-31T13:42:26;95037.78;;;23.88
42119;BMP280;27783;42.782;23.274;2023-10-31T13:44:51;95045.16;;;23.23
42119;BMP280;27783;42.782;23.274;2023-10-31T13:47:16;95039.56;;;23.46
42119;BMP280;27783;42.782;23.274;2023-10-31T13:49:42;95036.75;;;23.36
42119;BMP280;27783;42.782;23.274;2023-10-31T13:52:07;95037.00;;;23.18
42119;BMP280;27783;42.782;23.274;2023-10-31T13:54:33;95032.47;;;23.05
42119;BMP280;27783;42.782;23.274;2023-10-31T13:57:00;95035.00;;;22.74
42119;BMP280;27783;42.782;23.274;2023-10-31T13:59:26;95049.56;;;22.68
42119;BMP280;27783;42.782;23.274;2023-10-31T14:01:51;95049.97;;;22.81